sensor_id;sensor_type;location;lat;lon;timestamp;temperature;humidity
37886;DHT22;23726;52.520;13.434;2022-09-09T00:01:08;24.40;52.30
37886;DHT22;23726;52.520;13.434;2022-09-09T00:03:53;24.40;52.50
37886;DHT22;23726;52.520;13.434;2022-09-09T00:06:29;24.40;52.30
37886;DHT22;23726;52.520;13.434;2022-09-09T00:09:11;24.40;52.20
37886;DHT22;23726;52.520;13.434;2022-09-09T00:11:46;24.40;52.00
37886;DHT22;23726;52.520;13.434;2022-09-09T00:17:43;24.40;51.80
37886;DHT22;23726;52.520;13.434;2022-09-09T00:23:16;24.40;51.50
37886;DHT22;23726;52.520;13.434;2022-09-09T00:28:25;24.40;51.80
37886;DHT22;23726;52.520;13.434;2022-09-09T00:30:53;24.40;51.50
37886;DHT22;23726;52.520;13.434;2022-09-09T00:33:23;24.50;51.40
37886;DHT22;23726;52.520;13.434;2022-09-09T00:35:53;24.40;51.90
37886;DHT22;23726;52.520;13.434;2022-09-09T00:40:48;24.40;52.10
37886;DHT22;23726;52.520;13.434;2022-09-09T00:43:36;24.40;52.00
37886;DHT22;23726;52.520;13.434;2022-09-09T00:49:24;24.40;52.20
37886;DHT22;23726;52.520;13.434;2022-09-09T00:57:37;24.40;52.30
37886;DHT22;23726;52.520;13.434;2022-09-09T01:00:35;24.40;52.10
37886;DHT22;23726;52.520;13.434;2022-09-09T01:03:53;24.40;51.80
37886;DHT22;23726;52.520;13.434;2022-09-09T01:06:49;24.40;51.90
37886;DHT22;23726;52.520;13.434;2022-09-09T01:09:42;24.40;51.90
37886;DHT22;23726;52.520;13.434;2022-09-09T01:15:10;24.40;52.10
37886;DHT22;23726;52.520;13.434;2022-09-09T01:18:02;24.40;51.60
37886;DHT22;23726;52.520;13.434;2022-09-09T01:23:35;24.40;51.40
37886;DHT22;23726;52.520;13.434;2022-09-09T01:26:33;24.40;51.70
37886;DHT22;23726;52.520;13.434;2022-09-09T01:29:00;24.40;51.20
37886;DHT22;23726;52.520;13.434;2022-09-09T01:31:30;24.40;51.50
37886;DHT22;23726;52.520;13.434;2022-09-09T01:33:56;24.50;51.60
37886;DHT22;23726;52.520;13.434;2022-09-09T01:36:27;24.50;51.40
37886;DHT22;23726;52.520;13.434;2022-09-09T01:38:54;24.40;51.30
37886;DHT22;23726;52.520;13.434;2022-09-09T01:41:20;24.50;51.00
37886;DHT22;23726;52.520;13.434;2022-09-09T01:43:46;24.50;51.40
37886;DHT22;23726;52.520;13.434;2022-09-09T01:46:12;24.50;51.40
37886;DHT22;23726;52.520;13.434;2022-09-09T01:48:40;24.50;51.40
37886;DHT22;23726;52.520;13.434;2022-09-09T01:51:07;24.50;51.50
37886;DHT22;23726;52.520;13.434;2022-09-09T01:53:33;24.50;51.40
37886;DHT22;23726;52.520;13.434;2022-09-09T02:02:11;24.40;51.50
37886;DHT22;23726;52.520;13.434;2022-09-09T02:04:42;24.40;51.20
37886;DHT22;23726;52.520;13.434;2022-09-09T02:10:22;24.40;51.50
37886;DHT22;23726;52.520;13.434;2022-09-09T02:12:58;24.40;51.40
37886;DHT22;23726;52.520;13.434;2022-09-09T02:15:56;24.40;51.40
37886;DHT22;23726;52.520;13.434;2022-09-09T02:18:27;24.40;51.40
37886;DHT22;23726;52.520;13.434;2022-09-09T02:20:54;24.40;51.40
37886;DHT22;23726;52.520;13.434;2022-09-09T02:23:20;24.40;51.40
37886;DHT22;23726;52.520;13.434;2022-09-09T02:25:46;24.40;51.40
37886;DHT22;23726;52.520;13.434;2022-09-09T02:28:14;24.50;51.40
37886;DHT22;23726;52.520;13.434;2022-09-09T02:30:42;24.40;51.30
37886;DHT22;23726;52.520;13.434;2022-09-09T02:33:12;24.50;51.30
37886;DHT22;23726;52.520;13.434;2022-09-09T02:35:39;24.40;51.30
37886;DHT22;23726;52.520;13.434;2022-09-09T02:38:11;24.50;51.30
37886;DHT22;23726;52.520;13.434;2022-09-09T02:40:37;24.40;51.40
37886;DHT22;23726;52.520;13.434;2022-09-09T02:43:03;24.50;51.40
37886;DHT22;23726;52.520;13.434;2022-09-09T02:45:40;24.50;51.50
37886;DHT22;23726;52.520;13.434;2022-09-09T02:49:02;24.40;51.30
37886;DHT22;23726;52.520;13.434;2022-09-09T02:51:40;24.50;51.40
37886;DHT22;23726;52.520;13.434;2022-09-09T02:57:10;24.40;51.40
37886;DHT22;23726;52.520;13.434;2022-09-09T02:59:36;24.40;51.30
37886;DHT22;23726;52.520;13.434;2022-09-09T03:02:02;24.50;51.40
37886;DHT22;23726;52.520;13.434;2022-09-09T03:04:28;24.50;51.40
37886;DHT22;23726;52.520;13.434;2022-09-09T03:06:56;24.50;51.50
37886;DHT22;23726;52.520;13.434;2022-09-09T03:09:22;24.50;51.30
37886;DHT22;23726;52.520;13.434;2022-09-09T03:11:48;24.50;51.30
37886;DHT22;23726;52.520;13.434;2022-09-09T03:14:14;24.50;51.20
37886;DHT22;23726;52.520;13.434;2022-09-09T03:16:43;24.50;51.10
37886;DHT22;23726;52.520;13.434;2022-09-09T03:19:09;24.50;51.00
37886;DHT22;23726;52.520;13.434;2022-09-09T03:21:34;24.50;50.80
37886;DHT22;23726;52.520;13.434;2022-09-09T03:24:01;24.50;51.10
37886;DHT22;23726;52.520;13.434;2022-09-09T03:26:29;24.50;51.00
37886;DHT22;23726;52.520;13.434;2022-09-09T03:28:55;24.50;50.90
37886;DHT22;23726;52.520;13.434;2022-09-09T03:31:22;24.50;50.90
37886;DHT22;23726;52.520;13.434;2022-09-09T03:33:48;24.50;50.60
37886;DHT22;23726;52.520;13.434;2022-09-09T03:36:15;24.50;50.60
37886;DHT22;23726;52.520;13.434;2022-09-09T03:38:41;24.50;50.90
37886;DHT22;23726;52.520;13.434;2022-09-09T03:41:07;24.50;51.00
37886;DHT22;23726;52.520;13.434;2022-09-09T03:43:33;24.50;50.80
37886;DHT22;23726;52.520;13.434;2022-09-09T03:45:59;24.50;50.80
37886;DHT22;23726;52.520;13.434;2022-09-09T03:48:27;24.50;50.80
37886;DHT22;23726;52.520;13.434;2022-09-09T03:50:54;24.50;50.80
37886;DHT22;23726;52.520;13.434;2022-09-09T03:53:21;24.50;50.50
37886;DHT22;23726;52.520;13.434;2022-09-09T03:55:50;24.50;50.70
37886;DHT22;23726;52.520;13.434;2022-09-09T03:58:23;24.50;50.80
37886;DHT22;23726;52.520;13.434;2022-09-09T04:00:57;24.50;50.70
37886;DHT22;23726;52.520;13.434;2022-09-09T04:03:24;24.50;50.60
37886;DHT22;23726;52.520;13.434;2022-09-09T04:05:54;24.50;50.70
37886;DHT22;23726;52.520;13.434;2022-09-09T04:08:21;24.50;50.50
37886;DHT22;23726;52.520;13.434;2022-09-09T04:10:49;24.50;50.40
37886;DHT22;23726;52.520;13.434;2022-09-09T04:13:18;24.50;50.90
37886;DHT22;23726;52.520;13.434;2022-09-09T04:15:59;24.50;50.60
37886;DHT22;23726;52.520;13.434;2022-09-09T04:18:25;24.50;50.70
37886;DHT22;23726;52.520;13.434;2022-09-09T04:20:52;24.40;50.80
37886;DHT22;23726;52.520;13.434;2022-09-09T04:23:19;24.40;50.70
37886;DHT22;23726;52.520;13.434;2022-09-09T04:25:48;24.40;50.70
37886;DHT22;23726;52.520;13.434;2022-09-09T04:28:15;24.40;50.70
37886;DHT22;23726;52.520;13.434;2022-09-09T04:30:41;24.40;50.60
37886;DHT22;23726;52.520;13.434;2022-09-09T04:33:09;24.40;50.70
37886;DHT22;23726;52.520;13.434;2022-09-09T04:35:37;24.50;50.70
37886;DHT22;23726;52.520;13.434;2022-09-09T04:38:04;24.40;50.60
37886;DHT22;23726;52.520;13.434;2022-09-09T04:40:30;24.40;50.60
37886;DHT22;23726;52.520;13.434;2022-09-09T04:42:58;24.40;50.60
37886;DHT22;23726;52.520;13.434;2022-09-09T04:45:24;24.40;50.60
37886;DHT22;23726;52.520;13.434;2022-09-09T04:47:49;24.40;50.50
37886;DHT22;23726;52.520;13.434;2022-09-09T04:50:15;24.40;50.40
37886;DHT22;23726;52.520;13.434;2022-09-09T04:52:43;24.40;50.60
37886;DHT22;23726;52.520;13.434;2022-09-09T04:55:09;24.40;50.40
37886;DHT22;23726;52.520;13.434;2022-09-09T04:57:35;24.40;50.50
37886;DHT22;23726;52.520;13.434;2022-09-09T05:00:03;24.40;50.50
37886;DHT22;23726;52.520;13.434;2022-09-09T05:02:28;24.40;50.70
37886;DHT22;23726;52.520;13.434;2022-09-09T05:04:55;24.40;50.60
37886;DHT22;23726;52.520;13.434;2022-09-09T05:07:21;24.50;50.30
37886;DHT22;23726;52.520;13.434;2022-09-09T05:09:49;24.40;50.40
37886;DHT22;23726;52.520;13.434;2022-09-09T05:12:16;24.40;50.40
37886;DHT22;23726;52.520;13.434;2022-09-09T05:14:42;24.40;50.40
37886;DHT22;23726;52.520;13.434;2022-09-09T05:17:08;24.40;50.40
37886;DHT22;23726;52.520;13.434;2022-09-09T05:19:33;24.50;50.60
37886;DHT22;23726;52.520;13.434;2022-09-09T05:22:01;24.50;50.40
37886;DHT22;23726;52.520;13.434;2022-09-09T05:24:27;24.40;50.20
37886;DHT22;23726;52.520;13.434;2022-09-09T05:26:52;24.40;50.20
37886;DHT22;23726;52.520;13.434;2022-09-09T05:29:18;24.50;50.10
37886;DHT22;23726;52.520;13.434;2022-09-09T05:31:46;24.50;49.90
37886;DHT22;23726;52.520;13.434;2022-09-09T05:34:12;24.40;50.40
37886;DHT22;23726;52.520;13.434;2022-09-09T05:36:38;24.40;50.30
37886;DHT22;23726;52.520;13.434;2022-09-09T05:39:05;24.50;50.30
37886;DHT22;23726;52.520;13.434;2022-09-09T05:41:31;24.40;50.10
37886;DHT22;23726;52.520;13.434;2022-09-09T05:43:58;24.50;50.00
37886;DHT22;23726;52.520;13.434;2022-09-09T05:46:26;24.40;50.20
37886;DHT22;23726;52.520;13.434;2022-09-09T05:48:52;24.40;50.00
37886;DHT22;23726;52.520;13.434;2022-09-09T05:51:23;24.40;50.30
37886;DHT22;23726;52.520;13.434;2022-09-09T05:53:49;24.50;50.00
37886;DHT22;23726;52.520;13.434;2022-09-09T05:56:18;24.40;50.20
37886;DHT22;23726;52.520;13.434;2022-09-09T05:58:45;24.40;50.40
37886;DHT22;23726;52.520;13.434;2022-09-09T06:01:30;24.40;50.10
37886;DHT22;23726;52.520;13.434;2022-09-09T06:03:57;24.40;50.00
37886;DHT22;23726;52.520;13.434;2022-09-09T06:06:25;24.40;50.40
37886;DHT22;23726;52.520;13.434;2022-09-09T06:08:52;24.40;49.90
37886;DHT22;23726;52.520;13.434;2022-09-09T06:11:29;24.40;50.30
37886;DHT22;23726;52.520;13.434;2022-09-09T06:13:58;24.40;49.90
37886;DHT22;23726;52.520;13.434;2022-09-09T06:16:25;24.40;50.10
37886;DHT22;23726;52.520;13.434;2022-09-09T06:18:53;24.40;50.20
37886;DHT22;23726;52.520;13.434;2022-09-09T06:21:31;24.40;50.40
37886;DHT22;23726;52.520;13.434;2022-09-09T06:23:59;24.40;50.40
37886;DHT22;23726;52.520;13.434;2022-09-09T06:26:30;24.40;50.50
37886;DHT22;23726;52.520;13.434;2022-09-09T06:28:58;24.40;50.40
37886;DHT22;23726;52.520;13.434;2022-09-09T06:31:27;24.40;50.50
37886;DHT22;23726;52.520;13.434;2022-09-09T06:33:56;24.40;50.10
37886;DHT22;23726;52.520;13.434;2022-09-09T06:36:33;24.40;50.00
37886;DHT22;23726;52.520;13.434;2022-09-09T06:38:59;24.40;50.20
37886;DHT22;23726;52.520;13.434;2022-09-09T06:41:27;24.40;50.20
37886;DHT22;23726;52.520;13.434;2022-09-09T06:43:53;24.40;50.00
37886;DHT22;23726;52.520;13.434;2022-09-09T06:46:22;24.40;49.90
37886;DHT22;23726;52.520;13.434;2022-09-09T06:48:54;24.30;50.40
37886;DHT22;23726;52.520;13.434;2022-09-09T06:51:35;24.40;50.00
37886;DHT22;23726;52.520;13.434;2022-09-09T06:54:12;24.40;50.60
37886;DHT22;23726;52.520;13.434;2022-09-09T06:56:40;24.40;50.10
37886;DHT22;23726;52.520;13.434;2022-09-09T06:59:08;24.40;49.90
37886;DHT22;23726;52.520;13.434;2022-09-09T07:01:40;24.40;50.00
37886;DHT22;23726;52.520;13.434;2022-09-09T07:04:07;24.40;49.90
37886;DHT22;23726;52.520;13.434;2022-09-09T07:06:36;24.40;49.80
37886;DHT22;23726;52.520;13.434;2022-09-09T07:09:06;24.40;49.70
37886;DHT22;23726;52.520;13.434;2022-09-09T07:11:37;24.40;49.90
37886;DHT22;23726;52.520;13.434;2022-09-09T07:14:03;24.40;50.40
37886;DHT22;23726;52.520;13.434;2022-09-09T07:16:29;24.40;49.60
37886;DHT22;23726;52.520;13.434;2022-09-09T07:18:56;24.40;50.30
37886;DHT22;23726;52.520;13.434;2022-09-09T07:21:23;24.40;50.00
37886;DHT22;23726;52.520;13.434;2022-09-09T07:23:50;24.40;50.20
37886;DHT22;23726;52.520;13.434;2022-09-09T07:26:19;24.40;50.00
37886;DHT22;23726;52.520;13.434;2022-09-09T07:28:47;24.40;49.80
37886;DHT22;23726;52.520;13.434;2022-09-09T07:31:19;24.40;50.30
37886;DHT22;23726;52.520;13.434;2022-09-09T07:33:46;24.40;49.90
37886;DHT22;23726;52.520;13.434;2022-09-09T07:38:51;24.40;49.90
37886;DHT22;23726;52.520;13.434;2022-09-09T07:41:21;24.40;50.50
37886;DHT22;23726;52.520;13.434;2022-09-09T07:43:48;24.40;50.10
37886;DHT22;23726;52.520;13.434;2022-09-09T07:46:17;24.40;49.90
37886;DHT22;23726;52.520;13.434;2022-09-09T07:48:55;24.40;50.00
37886;DHT22;23726;52.520;13.434;2022-09-09T07:51:26;24.40;50.00
37886;DHT22;23726;52.520;13.434;2022-09-09T07:53:56;24.40;50.20
37886;DHT22;23726;52.520;13.434;2022-09-09T07:56:23;24.40;50.30
37886;DHT22;23726;52.520;13.434;2022-09-09T07:58:53;24.30;50.60
37886;DHT22;23726;52.520;13.434;2022-09-09T08:01:29;24.30;50.80
37886;DHT22;23726;52.520;13.434;2022-09-09T08:03:56;24.30;50.50
37886;DHT22;23726;52.520;13.434;2022-09-09T08:06:25;24.30;50.40
37886;DHT22;23726;52.520;13.434;2022-09-09T08:08:52;24.40;50.30
37886;DHT22;23726;52.520;13.434;2022-09-09T08:11:18;24.40;50.20
37886;DHT22;23726;52.520;13.434;2022-09-09T08:13:44;24.40;50.50
37886;DHT22;23726;52.520;13.434;2022-09-09T08:16:13;24.20;50.70
37886;DHT22;23726;52.520;13.434;2022-09-09T08:18:39;24.20;50.80
37886;DHT22;23726;52.520;13.434;2022-09-09T08:21:13;24.30;50.50
37886;DHT22;23726;52.520;13.434;2022-09-09T08:23:41;24.20;50.60
37886;DHT22;23726;52.520;13.434;2022-09-09T08:26:13;24.20;50.80
37886;DHT22;23726;52.520;13.434;2022-09-09T08:28:41;24.20;51.10
37886;DHT22;23726;52.520;13.434;2022-09-09T08:31:13;24.20;50.90
37886;DHT22;23726;52.520;13.434;2022-09-09T08:33:40;24.20;51.00
37886;DHT22;23726;52.520;13.434;2022-09-09T08:36:10;24.30;50.50
37886;DHT22;23726;52.520;13.434;2022-09-09T08:38:37;24.30;50.50
37886;DHT22;23726;52.520;13.434;2022-09-09T08:43:48;24.30;50.40
37886;DHT22;23726;52.520;13.434;2022-09-09T08:46:42;24.40;50.40
37886;DHT22;23726;52.520;13.434;2022-09-09T08:52:28;24.40;50.50
37886;DHT22;23726;52.520;13.434;2022-09-09T08:55:29;24.30;50.30
37886;DHT22;23726;52.520;13.434;2022-09-09T08:58:09;24.40;50.30
37886;DHT22;23726;52.520;13.434;2022-09-09T09:03:35;24.40;50.20
37886;DHT22;23726;52.520;13.434;2022-09-09T09:08:48;24.40;50.10
37886;DHT22;23726;52.520;13.434;2022-09-09T09:11:18;24.40;50.00
37886;DHT22;23726;52.520;13.434;2022-09-09T09:13:50;24.40;50.00
37886;DHT22;23726;52.520;13.434;2022-09-09T09:16:31;24.40;50.00
37886;DHT22;23726;52.520;13.434;2022-09-09T09:18:59;24.40;50.00
37886;DHT22;23726;52.520;13.434;2022-09-09T09:21:36;24.40;50.20
37886;DHT22;23726;52.520;13.434;2022-09-09T09:24:12;24.40;50.10
37886;DHT22;23726;52.520;13.434;2022-09-09T09:26:43;24.40;50.00
37886;DHT22;23726;52.520;13.434;2022-09-09T09:29:14;24.40;49.90
37886;DHT22;23726;52.520;13.434;2022-09-09T09:31:47;24.40;50.00
37886;DHT22;23726;52.520;13.434;2022-09-09T09:34:16;24.40;49.90
37886;DHT22;23726;52.520;13.434;2022-09-09T09:36:57;24.40;49.80
37886;DHT22;23726;52.520;13.434;2022-09-09T09:41:48;24.40;49.80
37886;DHT22;23726;52.520;13.434;2022-09-09T09:44:27;24.40;49.70
37886;DHT22;23726;52.520;13.434;2022-09-09T09:47:07;24.40;49.80
37886;DHT22;23726;52.520;13.434;2022-09-09T09:49:33;24.40;49.90
37886;DHT22;23726;52.520;13.434;2022-09-09T09:52:04;24.50;49.90
37886;DHT22;23726;52.520;13.434;2022-09-09T09:54:34;24.40;49.90
37886;DHT22;23726;52.520;13.434;2022-09-09T09:57:14;24.40;50.30
37886;DHT22;23726;52.520;13.434;2022-09-09T09:59:41;24.40;49.80
37886;DHT22;23726;52.520;13.434;2022-09-09T10:02:21;24.50;49.80
37886;DHT22;23726;52.520;13.434;2022-09-09T10:05:04;24.40;49.80
37886;DHT22;23726;52.520;13.434;2022-09-09T10:07:29;24.50;49.80
37886;DHT22;23726;52.520;13.434;2022-09-09T10:09:57;24.50;50.50
37886;DHT22;23726;52.520;13.434;2022-09-09T10:18:00;24.50;50.10
37886;DHT22;23726;52.520;13.434;2022-09-09T10:26:10;24.50;49.70
37886;DHT22;23726;52.520;13.434;2022-09-09T10:31:49;24.40;49.70
37886;DHT22;23726;52.520;13.434;2022-09-09T10:34:49;24.40;49.70
37886;DHT22;23726;52.520;13.434;2022-09-09T10:40:24;24.40;49.80
37886;DHT22;23726;52.520;13.434;2022-09-09T10:43:39;24.40;49.80
37886;DHT22;23726;52.520;13.434;2022-09-09T10:46:06;24.40;49.70
37886;DHT22;23726;52.520;13.434;2022-09-09T10:56:58;24.40;49.70
37886;DHT22;23726;52.520;13.434;2022-09-09T10:59:33;24.50;49.70
37886;DHT22;23726;52.520;13.434;2022-09-09T11:02:16;24.40;49.70
37886;DHT22;23726;52.520;13.434;2022-09-09T11:07:39;24.50;50.00
37886;DHT22;23726;52.520;13.434;2022-09-09T11:10:21;24.50;49.90
37886;DHT22;23726;52.520;13.434;2022-09-09T11:12:52;24.50;49.90
37886;DHT22;23726;52.520;13.434;2022-09-09T11:15:41;24.50;49.90
37886;DHT22;23726;52.520;13.434;2022-09-09T11:18:15;24.50;49.90
37886;DHT22;23726;52.520;13.434;2022-09-09T11:20:44;24.50;49.90
37886;DHT22;23726;52.520;13.434;2022-09-09T11:23:17;24.50;49.90
37886;DHT22;23726;52.520;13.434;2022-09-09T11:25:52;24.50;49.80
37886;DHT22;23726;52.520;13.434;2022-09-09T11:28:33;24.50;50.10
37886;DHT22;23726;52.520;13.434;2022-09-09T11:31:43;24.50;50.10
37886;DHT22;23726;52.520;13.434;2022-09-09T11:34:34;24.50;50.20
37886;DHT22;23726;52.520;13.434;2022-09-09T11:44:41;24.60;50.20
37886;DHT22;23726;52.520;13.434;2022-09-09T11:47:24;24.50;50.10
37886;DHT22;23726;52.520;13.434;2022-09-09T11:50:06;24.50;50.10
37886;DHT22;23726;52.520;13.434;2022-09-09T11:52:37;24.60;50.20
37886;DHT22;23726;52.520;13.434;2022-09-09T11:55:32;24.60;50.40
37886;DHT22;23726;52.520;13.434;2022-09-09T11:58:04;24.60;50.40
37886;DHT22;23726;52.520;13.434;2022-09-09T12:03:03;24.60;50.40
37886;DHT22;23726;52.520;13.434;2022-09-09T12:05:41;24.50;51.10
37886;DHT22;23726;52.520;13.434;2022-09-09T12:08:16;24.60;50.60
37886;DHT22;23726;52.520;13.434;2022-09-09T12:10:54;24.60;50.80
37886;DHT22;23726;52.520;13.434;2022-09-09T12:13:27;24.50;50.80
37886;DHT22;23726;52.520;13.434;2022-09-09T12:15:56;24.50;50.80
37886;DHT22;23726;52.520;13.434;2022-09-09T12:18:36;24.60;50.70
37886;DHT22;23726;52.520;13.434;2022-09-09T12:27:02;24.60;50.60
37886;DHT22;23726;52.520;13.434;2022-09-09T12:29:54;24.60;50.60
37886;DHT22;23726;52.520;13.434;2022-09-09T12:32:25;24.60;50.60
37886;DHT22;23726;52.520;13.434;2022-09-09T12:35:09;24.60;50.70
37886;DHT22;23726;52.520;13.434;2022-09-09T12:37:54;24.60;50.70
37886;DHT22;23726;52.520;13.434;2022-09-09T12:40:40;24.60;50.70
37886;DHT22;23726;52.520;13.434;2022-09-09T12:43:23;24.60;50.70
37886;DHT22;23726;52.520;13.434;2022-09-09T12:46:12;24.60;50.70
37886;DHT22;23726;52.520;13.434;2022-09-09T12:48:41;24.60;50.80
37886;DHT22;23726;52.520;13.434;2022-09-09T12:51:25;24.60;50.70
37886;DHT22;23726;52.520;13.434;2022-09-09T12:53:51;24.60;51.20
37886;DHT22;23726;52.520;13.434;2022-09-09T12:56:22;24.60;50.70
37886;DHT22;23726;52.520;13.434;2022-09-09T12:58:50;24.50;50.80
37886;DHT22;23726;52.520;13.434;2022-09-09T13:01:29;24.50;50.80
37886;DHT22;23726;52.520;13.434;2022-09-09T13:03:56;24.60;50.90
37886;DHT22;23726;52.520;13.434;2022-09-09T13:06:27;24.60;50.70
37886;DHT22;23726;52.520;13.434;2022-09-09T13:08:54;24.60;50.70
37886;DHT22;23726;52.520;13.434;2022-09-09T13:11:38;24.60;50.70
37886;DHT22;23726;52.520;13.434;2022-09-09T13:14:05;24.60;50.70
37886;DHT22;23726;52.520;13.434;2022-09-09T13:16:34;24.60;50.70
37886;DHT22;23726;52.520;13.434;2022-09-09T13:19:09;24.60;50.70
37886;DHT22;23726;52.520;13.434;2022-09-09T13:21:39;24.60;50.80
37886;DHT22;23726;52.520;13.434;2022-09-09T13:24:20;24.60;50.70
37886;DHT22;23726;52.520;13.434;2022-09-09T13:27:04;24.60;50.70
37886;DHT22;23726;52.520;13.434;2022-09-09T13:29:31;24.60;50.70
37886;DHT22;23726;52.520;13.434;2022-09-09T13:32:04;24.60;50.60
37886;DHT22;23726;52.520;13.434;2022-09-09T13:34:34;24.60;50.60
37886;DHT22;23726;52.520;13.434;2022-09-09T13:37:06;24.60;50.70
37886;DHT22;23726;52.520;13.434;2022-09-09T13:39:36;24.60;51.20
37886;DHT22;23726;52.520;13.434;2022-09-09T13:42:03;24.60;50.70
37886;DHT22;23726;52.520;13.434;2022-09-09T13:44:33;24.60;50.70
37886;DHT22;23726;52.520;13.434;2022-09-09T13:47:05;24.60;50.70
37886;DHT22;23726;52.520;13.434;2022-09-09T13:49:44;24.60;50.70
37886;DHT22;23726;52.520;13.434;2022-09-09T13:52:12;24.60;50.70
37886;DHT22;23726;52.520;13.434;2022-09-09T13:54:39;24.60;50.70
37886;DHT22;23726;52.520;13.434;2022-09-09T13:57:13;24.60;50.60
37886;DHT22;23726;52.520;13.434;2022-09-09T13:59:41;24.60;50.60
37886;DHT22;23726;52.520;13.434;2022-09-09T14:02:08;24.70;50.60
37886;DHT22;23726;52.520;13.434;2022-09-09T14:04:34;24.70;50.60
37886;DHT22;23726;52.520;13.434;2022-09-09T14:07:01;24.70;50.60
37886;DHT22;23726;52.520;13.434;2022-09-09T14:09:27;24.70;50.60
37886;DHT22;23726;52.520;13.434;2022-09-09T14:11:54;24.70;50.60
37886;DHT22;23726;52.520;13.434;2022-09-09T14:14:23;24.60;50.50
37886;DHT22;23726;52.520;13.434;2022-09-09T14:16:50;24.70;50.60
37886;DHT22;23726;52.520;13.434;2022-09-09T14:19:15;24.70;50.50
37886;DHT22;23726;52.520;13.434;2022-09-09T14:21:41;24.70;51.10
37886;DHT22;23726;52.520;13.434;2022-09-09T14:24:07;24.70;50.60
37886;DHT22;23726;52.520;13.434;2022-09-09T14:26:33;24.70;50.80
37886;DHT22;23726;52.520;13.434;2022-09-09T14:28:59;24.70;50.60
37886;DHT22;23726;52.520;13.434;2022-09-09T14:31:26;24.70;50.50
37886;DHT22;23726;52.520;13.434;2022-09-09T14:33:52;24.70;50.40
37886;DHT22;23726;52.520;13.434;2022-09-09T14:36:18;24.80;50.50
37886;DHT22;23726;52.520;13.434;2022-09-09T14:38:45;24.80;50.50
37886;DHT22;23726;52.520;13.434;2022-09-09T14:41:14;24.80;50.40
37886;DHT22;23726;52.520;13.434;2022-09-09T14:43:44;24.80;50.80
37886;DHT22;23726;52.520;13.434;2022-09-09T14:46:12;24.80;50.30
37886;DHT22;23726;52.520;13.434;2022-09-09T14:48:38;24.80;50.80
37886;DHT22;23726;52.520;13.434;2022-09-09T14:51:14;24.80;50.30
37886;DHT22;23726;52.520;13.434;2022-09-09T14:53:41;24.80;50.30
37886;DHT22;23726;52.520;13.434;2022-09-09T14:56:16;24.80;50.30
37886;DHT22;23726;52.520;13.434;2022-09-09T14:58:44;24.80;50.30
37886;DHT22;23726;52.520;13.434;2022-09-09T15:01:13;24.80;50.30
37886;DHT22;23726;52.520;13.434;2022-09-09T15:03:40;24.80;50.30
37886;DHT22;23726;52.520;13.434;2022-09-09T15:06:11;24.80;50.30
37886;DHT22;23726;52.520;13.434;2022-09-09T15:08:40;24.80;50.20
37886;DHT22;23726;52.520;13.434;2022-09-09T15:11:07;24.80;50.30
37886;DHT22;23726;52.520;13.434;2022-09-09T15:13:34;24.80;50.30
37886;DHT22;23726;52.520;13.434;2022-09-09T15:16:19;24.80;50.20
37886;DHT22;23726;52.520;13.434;2022-09-09T15:18:45;24.80;50.20
37886;DHT22;23726;52.520;13.434;2022-09-09T15:21:16;24.80;50.30
37886;DHT22;23726;52.520;13.434;2022-09-09T15:23:42;24.80;50.30
37886;DHT22;23726;52.520;13.434;2022-09-09T15:26:10;24.80;50.30
37886;DHT22;23726;52.520;13.434;2022-09-09T15:28:37;24.90;50.30
37886;DHT22;23726;52.520;13.434;2022-09-09T15:31:10;24.90;50.30
37886;DHT22;23726;52.520;13.434;2022-09-09T15:33:36;24.90;50.20
37886;DHT22;23726;52.520;13.434;2022-09-09T15:36:23;24.90;50.20
37886;DHT22;23726;52.520;13.434;2022-09-09T15:38:50;24.90;50.20
37886;DHT22;23726;52.520;13.434;2022-09-09T15:41:18;24.90;50.20
37886;DHT22;23726;52.520;13.434;2022-09-09T15:43:47;24.90;50.20
37886;DHT22;23726;52.520;13.434;2022-09-09T15:46:32;24.90;50.10
37886;DHT22;23726;52.520;13.434;2022-09-09T15:49:20;24.90;50.10
37886;DHT22;23726;52.520;13.434;2022-09-09T15:51:57;24.90;50.20
37886;DHT22;23726;52.520;13.434;2022-09-09T15:54:24;24.90;50.20
37886;DHT22;23726;52.520;13.434;2022-09-09T15:57:00;24.90;50.10
37886;DHT22;23726;52.520;13.434;2022-09-09T15:59:28;24.90;50.20
37886;DHT22;23726;52.520;13.434;2022-09-09T16:01:56;25.00;50.20
37886;DHT22;23726;52.520;13.434;2022-09-09T16:04:24;25.00;50.20
37886;DHT22;23726;52.520;13.434;2022-09-09T16:06:59;25.00;50.10
37886;DHT22;23726;52.520;13.434;2022-09-09T16:09:26;25.00;50.20
37886;DHT22;23726;52.520;13.434;2022-09-09T16:11:52;25.00;50.10
37886;DHT22;23726;52.520;13.434;2022-09-09T16:14:20;25.00;50.00
37886;DHT22;23726;52.520;13.434;2022-09-09T16:16:47;25.00;50.00
37886;DHT22;23726;52.520;13.434;2022-09-09T16:19:13;25.00;50.00
37886;DHT22;23726;52.520;13.434;2022-09-09T16:21:45;25.00;50.00
37886;DHT22;23726;52.520;13.434;2022-09-09T16:24:15;25.00;50.00
37886;DHT22;23726;52.520;13.434;2022-09-09T16:26:50;25.00;50.00
37886;DHT22;23726;52.520;13.434;2022-09-09T16:29:19;25.00;50.00
37886;DHT22;23726;52.520;13.434;2022-09-09T16:31:46;25.00;50.00
37886;DHT22;23726;52.520;13.434;2022-09-09T16:34:13;24.90;49.90
37886;DHT22;23726;52.520;13.434;2022-09-09T16:36:40;24.90;49.90
37886;DHT22;23726;52.520;13.434;2022-09-09T16:39:11;24.90;49.90
37886;DHT22;23726;52.520;13.434;2022-09-09T16:41:37;24.90;49.90
37886;DHT22;23726;52.520;13.434;2022-09-09T16:44:05;24.90;49.90
37886;DHT22;23726;52.520;13.434;2022-09-09T16:46:32;24.90;49.90
37886;DHT22;23726;52.520;13.434;2022-09-09T16:49:00;24.90;49.90
37886;DHT22;23726;52.520;13.434;2022-09-09T16:51:33;24.90;49.90
37886;DHT22;23726;52.520;13.434;2022-09-09T16:54:02;24.90;49.90
37886;DHT22;23726;52.520;13.434;2022-09-09T16:56:30;24.90;49.90
37886;DHT22;23726;52.520;13.434;2022-09-09T16:58:58;24.90;49.90
37886;DHT22;23726;52.520;13.434;2022-09-09T17:01:25;24.90;50.00
37886;DHT22;23726;52.520;13.434;2022-09-09T17:03:54;24.90;49.90
37886;DHT22;23726;52.520;13.434;2022-09-09T17:06:20;24.90;49.90
37886;DHT22;23726;52.520;13.434;2022-09-09T17:08:46;24.90;49.90
37886;DHT22;23726;52.520;13.434;2022-09-09T17:11:15;24.90;49.90
37886;DHT22;23726;52.520;13.434;2022-09-09T17:13:46;24.90;50.00
37886;DHT22;23726;52.520;13.434;2022-09-09T17:16:15;24.90;49.90
37886;DHT22;23726;52.520;13.434;2022-09-09T17:18:49;24.80;49.90
37886;DHT22;23726;52.520;13.434;2022-09-09T17:21:19;24.90;50.00